Sao Joao de Barra, Brazil
Current Conditions -  °F | °C
As of 10:00 AM on Sunday 21 Dec 2014 (Local Time) from SBBQ Reporting Station
Broken Clouds Broken Clouds  
Wind Chill: 75°   Ceiling: 2100
Heat Index: 75°   Visibility: 6mi
Dew Point: 66°   Wind: 9mph
Humidity: 73%   Direction: 350°N
Pressure: 30.15"   Gusts: NA
Location:  21.13°S, 44.27°W
Report Text: SBBQ 211200Z 35008KT 9999 BKN021 24/19 Q1021
Loading
Personal Weather Stations






























Interactive Weather Map New forecast layout! Learn more

10-Day Weather Forecast

Advertisements
Track Severe Weather on mobile